Flight Track Log - Related Links

Times and Time Zones

All times are in EDT time to prevent confusion due to time zone crossing. See the XOJ552 flight status page for this flight to view local times or setup timezone preferences in your user account.

Time Position Orientation Groundspeed Altitude Reporting Facility
EDT Latitude Longitude Course Direction KTS MPH feet Rate Location/Type
Fri 11:59:27 AM 40.8167 -74.1333 51° Northeast 222 255 1,600  Level New York TRACON
Fri 12:00:27 PM 40.8000 -74.2000 252° West 196 226 2,800 1,263 Climbing New York TRACON
Fri 12:02:56 PM 40.9442 -74.2261 352° North 222 255 6,000 947 Climbing Boston Center
Fri 12:03:56 PM 41.0197 -74.1925 19° North 259 298 6,100 50 Climbing Boston Center
Fri 12:04:00 PM 41.0032 -73.8095 51° Northeast  Level Estimated
Fri 12:04:56 PM 41.0867 -74.1667 16° North 266 306 6,100  Level Boston Center
Fri 12:05:56 PM 41.1361 -74.0772 54° Northeast 257 296 7,700 1,850 Climbing Boston Center
Fri 12:06:56 PM 41.1625 -73.9786 70° East 280 322 9,800 2,150 Climbing Boston Center
Fri 12:07:56 PM 41.1908 -73.8717 71° East 323 372 12,000 2,500 Climbing Boston Center
Fri 12:08:56 PM 41.2281 -73.7261 71° East 367 422 14,800 2,100 Climbing Boston Center
Fri 12:09:56 PM 41.2736 -73.5669 69° East 403 464 16,200 1,100 Climbing Boston Center
Fri 12:10:56 PM 41.3228 -73.4378 63° Northeast 421 484 17,000 400 Climbing Boston Center
Fri 12:11:56 PM 41.3758 -73.2978 63° Northeast 427 491 17,000  Level Boston Center
Fri 12:12:56 PM 41.4228 -73.1681 64° Northeast 427 491 17,000 -300 Level Boston Center
Fri 12:13:56 PM 41.4778 -73.0108 65° Northeast 420 483 16,400 -950 Descending Boston Center
Fri 12:14:56 PM 41.5264 -72.8700 65° Northeast 392 451 15,100 -700 Descending Boston Center
Fri 12:15:56 PM 41.5706 -72.7453 65° Northeast 387 445 15,000 -50 Descending Boston Center
Fri 12:16:56 PM 41.6250 -72.5928 64° Northeast 406 467 15,000 -450 Level Boston Center
Fri 12:17:56 PM 41.6939 -72.4956 46° Northeast 397 457 14,100 -1,442 Descending Boston Center
Fri 12:18:40 PM 41.7586 -72.4233 40° Northeast 367 422 12,500 -1,758 Descending Boston Center
Fri 12:19:35 PM 41.8253 -72.3508 39° Northeast 342 394 11,200 -828 Descending Boston Center
Fri 12:20:36 PM 41.8981 -72.2672 41° Northeast 344 396 10,900 -590 Descending Boston Center
Fri 12:21:37 PM 41.9769 -72.1719 42° Northeast 355 409 10,000 -744 Descending Boston Center
Fri 12:22:37 PM 42.0478 -72.0961 38° Northeast 320 368 9,400 -992 Descending Boston Center
Fri 12:23:38 PM 42.1100 -72.0231 41° Northeast 292 336 8,000 -1,279 Descending Boston Center
Fri 12:24:39 PM 42.1700 -71.9583 39° Northeast 277 319 6,800 -1,131 Descending Boston Center
Fri 12:25:40 PM 42.2281 -71.8933 40° Northeast 274 315 5,700 -701 Descending Boston Center
Fri 12:27:13 PM 42.3333 -71.7833 38° Northeast 284 327 5,000 -273 Descending KA90
Fri 12:28:14 PM 42.3833 -71.7000 51° Northeast 285 328 5,000  Level KA90
Fri 12:29:13 PM 42.4333 -71.6167 51° Northeast 285 328 5,000 -550 Level KA90
Fri 12:30:14 PM 42.4833 -71.5500 45° Northeast 262 302 3,900 -1,043 Descending KA90
Fri 12:31:08 PM 42.5333 -71.4833 44° Northeast 254 292 3,000 -474 Descending KA90
Fri 12:32:08 PM 42.5667 -71.4000 61° Northeast 264 304 3,000 -300 Level KA90
Fri 12:33:08 PM 42.5667 -71.3000 90° East 238 274 2,400 -500 Descending KA90
Fri 12:34:08 PM 42.5500 -71.2333 109° East 195 224 2,000 -400 Descending KA90
Fri 12:35:08 PM 42.5000 -71.2000 154° Southeast 184 212 1,600 -550 Descending KA90
Fri 12:36:08 PM 42.4667 -71.2333 216° Southwest 153 176 900 -700 Descending KA90
Fri 12:38:00 PM 42.4667 -71.2833 204° Southwest  Level FlightAware Approximate
Fri 12:45:00 PM 42.4699 -71.2890 204° Southwest  Level Estimated

Login

Don't have an account? Register now (free) for customized features, flight alerts, and more!